Terminal Aerodrome Forecast
Issued by NWS

Home | Current Version | Previous Version | Graphics & Text | Print | Product List | Glossary On
Versions: 1 2 3 4 5 6 7 8 9 10 11 12 13 14 15 16 17 18 19 20 21
000
FTUS43 KFGF 181712 AAB
TAFBJI
TAF AMD
KBJI 181712Z 1817/1912 27007KT P6SM BKN016
     FM182200 26005KT P6SM SCT020
     FM190100 22004KT P6SM SCT150
     FM190300 20005KT P6SM BKN200=

USA.gov is the U.S. government's official web portal to all federal, state and local government web resources and services.